Time;durP1;ratioP1;P1;durP2;ratioP2;P2;SDS_P1;SDS_P2;PMS_P1;PMS_P2;Temp;Humidity;BMP_temperature;BMP_pressure;BME280_temperature;BME280_humidity;BME280_pressure;Samples;Min_cycle;Max_cycle;Signal;HPM_P1;HPM_P2
2021/05/07 00:01:54;;;;;;;1.23;1.03;;;9.50;98.00;;;;;;5089772;28;20513;-69
2021/05/07 00:04:22;;;;;;;1.20;0.90;;;9.50;98.00;;;;;;5092534;28;20989;-68
2021/05/07 00:06:50;;;;;;;1.20;1.00;;;9.50;98.00;;;;;;5089826;28;20499;-68
2021/05/07 00:09:18;;;;;;;1.20;1.00;;;9.50;98.00;;;;;;5092285;28;20486;-68
2021/05/07 00:11:44;;;;;;;1.20;0.90;;;9.50;98.00;;;;;;5089553;28;20506;-69
2021/05/07 00:14:12;;;;;;;1.20;0.90;;;9.40;98.00;;;;;;5092126;28;20515;-69
2021/05/07 00:16:38;;;;;;;1.20;0.90;;;9.40;98.00;;;;;;5071331;28;20451;-68
2021/05/07 00:19:06;;;;;;;1.50;1.10;;;9.30;98.00;;;;;;5091807;28;20973;-68
2021/05/07 00:21:33;;;;;;;1.20;0.90;;;9.30;98.00;;;;;;5089060;28;20490;-68
2021/05/07 00:24:01;;;;;;;1.20;0.90;;;9.30;98.00;;;;;;5091782;28;20466;-68
2021/05/07 00:26:28;;;;;;;1.20;0.90;;;9.30;98.00;;;;;;5089277;28;20486;-69
2021/05/07 00:28:54;;;;;;;1.20;1.00;;;9.30;98.00;;;;;;5091667;28;20454;-69
2021/05/07 00:31:21;;;;;;;1.30;1.00;;;9.20;98.00;;;;;;5089304;28;20462;-69
2021/05/07 00:33:47;;;;;;;1.20;1.00;;;9.20;98.00;;;;;;5091552;28;20466;-68
2021/05/07 00:36:13;;;;;;;1.20;0.90;;;9.30;98.00;;;;;;5089241;28;20482;-69
2021/05/07 00:38:40;;;;;;;1.20;1.00;;;9.30;98.00;;;;;;5090166;28;20494;-69
2021/05/07 00:41:07;;;;;;;1.50;1.33;;;9.30;98.00;;;;;;5087583;28;20941;-70
2021/05/07 00:43:34;;;;;;;1.20;0.90;;;9.30;98.00;;;;;;5091131;28;20462;-69
2021/05/07 00:46:00;;;;;;;1.20;0.90;;;9.30;98.00;;;;;;5088702;28;20917;-68
2021/05/07 00:48:27;;;;;;;1.40;1.07;;;9.30;98.00;;;;;;5091307;28;20835;-68
2021/05/07 00:50:53;;;;;;;1.20;0.90;;;9.20;98.00;;;;;;5088754;28;20789;-68
2021/05/07 00:53:21;;;;;;;1.20;0.90;;;9.20;98.00;;;;;;5091699;28;20526;-68
2021/05/07 00:55:48;;;;;;;1.20;0.90;;;9.20;98.00;;;;;;5088550;28;20849;-69
2021/05/07 00:58:15;;;;;;;1.20;0.90;;;9.10;98.00;;;;;;5090069;28;20458;-69
2021/05/07 01:00:42;;;;;;;1.20;0.90;;;9.10;98.00;;;;;;5088479;28;20497;-69
2021/05/07 01:03:09;;;;;;;2.60;1.23;;;9.10;98.00;;;;;;5089865;28;20466;-69
2021/05/07 01:05:36;;;;;;;1.20;0.90;;;9.00;98.00;;;;;;5090549;28;20466;-70
2021/05/07 01:08:02;;;;;;;1.20;0.90;;;9.00;98.00;;;;;;5089777;28;20463;-68
2021/05/07 01:10:29;;;;;;;1.37;1.20;;;9.00;98.00;;;;;;5091012;28;20492;-70
2021/05/07 01:12:55;;;;;;;1.20;1.00;;;8.90;98.00;;;;;;5088595;28;21015;-69
2021/05/07 01:15:24;;;;;;;1.20;0.90;;;8.90;98.00;;;;;;5091000;28;20952;-68
2021/05/07 01:17:52;;;;;;;1.20;1.00;;;8.90;98.00;;;;;;5088301;28;20874;-68
2021/05/07 01:20:22;;;;;;;1.20;0.90;;;8.80;98.00;;;;;;5090909;28;20776;-68
2021/05/07 01:22:50;;;;;;;1.20;0.90;;;8.80;98.00;;;;;;5088249;28;20457;-69
2021/05/07 01:25:19;;;;;;;1.20;0.90;;;8.80;98.00;;;;;;5090950;28;20463;-68
2021/05/07 01:27:47;;;;;;;1.20;0.90;;;8.70;98.00;;;;;;5088091;28;20511;-69
2021/05/07 01:30:17;;;;;;;1.20;1.00;;;8.70;98.00;;;;;;5090881;28;20505;-68
2021/05/07 01:32:44;;;;;;;1.40;1.10;;;8.70;98.00;;;;;;5088360;28;20456;-68
2021/05/07 01:35:14;;;;;;;1.20;1.00;;;8.70;98.00;;;;;;5091055;28;20449;-68
2021/05/07 01:37:43;;;;;;;1.20;0.90;;;8.60;98.00;;;;;;5088545;28;20455;-68
2021/05/07 01:40:15;;;;;;;1.20;1.00;;;8.60;98.00;;;;;;5090696;28;20482;-70
2021/05/07 01:42:42;;;;;;;1.20;1.00;;;8.70;98.00;;;;;;5088311;28;20463;-69
2021/05/07 01:45:09;;;;;;;1.20;0.90;;;8.60;98.00;;;;;;5090892;28;20458;-68
2021/05/07 01:47:36;;;;;;;1.20;0.97;;;8.50;98.00;;;;;;5088175;28;20501;-69
2021/05/07 01:50:06;;;;;;;1.20;0.90;;;8.50;98.00;;;;;;5090690;28;20488;-68
2021/05/07 01:52:32;;;;;;;1.20;1.00;;;8.30;98.00;;;;;;5088252;28;20855;-69
2021/05/07 01:55:02;;;;;;;1.30;1.00;;;8.30;98.00;;;;;;5090764;28;20965;-70
2021/05/07 01:57:29;;;;;;;1.20;1.10;;;8.20;98.00;;;;;;5092033;28;20457;-69
2021/05/07 01:59:59;;;;;;;1.20;0.90;;;8.10;98.00;;;;;;5094437;28;20507;-69
2021/05/07 02:02:26;;;;;;;1.20;0.90;;;8.20;98.00;;;;;;5090619;28;20459;-68
2021/05/07 02:04:52;;;;;;;1.20;0.90;;;8.10;98.00;;;;;;5094311;28;20452;-70
2021/05/07 02:07:19;;;;;;;1.20;0.90;;;8.10;98.00;;;;;;5092012;28;20950;-69
2021/05/07 02:09:45;;;;;;;1.20;0.90;;;8.00;98.00;;;;;;5094429;28;20489;-71
2021/05/07 02:12:13;;;;;;;1.20;0.90;;;8.10;98.00;;;;;;5091708;28;20878;-69
2021/05/07 02:14:40;;;;;;;1.20;0.90;;;8.10;98.00;;;;;;5094325;28;20463;-69
2021/05/07 02:17:06;;;;;;;1.20;0.90;;;8.00;98.00;;;;;;5091226;28;20453;-69
2021/05/07 02:19:33;;;;;;;1.20;0.90;;;7.90;98.00;;;;;;5094343;28;20445;-68
2021/05/07 02:21:59;;;;;;;1.20;0.90;;;7.90;98.00;;;;;;5091407;28;20864;-70
2021/05/07 02:24:26;;;;;;;1.20;0.90;;;7.90;98.00;;;;;;5094324;28;20452;-69
2021/05/07 02:26:53;;;;;;;1.20;0.97;;;7.90;98.00;;;;;;5091576;28;20825;-69
2021/05/07 02:29:20;;;;;;;1.20;0.90;;;8.00;98.00;;;;;;5094133;28;20459;-69
2021/05/07 02:31:47;;;;;;;1.20;0.90;;;8.00;98.00;;;;;;5091238;28;20467;-69
2021/05/07 02:34:15;;;;;;;1.20;1.00;;;8.00;98.00;;;;;;5093918;28;20492;-70
2021/05/07 02:36:42;;;;;;;1.20;0.90;;;8.00;98.00;;;;;;5091106;28;20462;-69
2021/05/07 02:39:09;;;;;;;1.20;0.90;;;7.90;98.00;;;;;;5093826;28;20858;-68
2021/05/07 02:41:36;;;;;;;1.20;0.90;;;7.90;98.00;;;;;;5091021;28;20514;-69
2021/05/07 02:44:04;;;;;;;1.20;0.90;;;7.90;98.00;;;;;;5093851;28;20878;-70
2021/05/07 02:46:33;;;;;;;1.20;0.90;;;7.90;98.00;;;;;;5091153;28;20465;-69
2021/05/07 02:49:00;;;;;;;1.20;0.90;;;7.90;98.00;;;;;;5093765;28;20545;-68
2021/05/07 02:51:27;;;;;;;1.17;0.90;;;7.90;98.00;;;;;;5091167;28;20473;-68
2021/05/07 02:53:54;;;;;;;1.20;1.00;;;8.10;98.00;;;;;;5093618;28;20462;-68
2021/05/07 02:56:21;;;;;;;1.20;0.90;;;8.10;98.00;;;;;;5091194;28;20462;-69
2021/05/07 02:58:48;;;;;;;1.20;0.90;;;8.10;98.00;;;;;;5093335;28;20504;-69
2021/05/07 03:01:14;;;;;;;1.20;0.90;;;8.00;98.00;;;;;;5091364;28;20477;-69
2021/05/07 03:03:42;;;;;;;2.13;1.10;;;8.00;98.00;;;;;;5093705;28;20948;-68
2021/05/07 03:06:08;;;;;;;1.20;0.90;;;8.10;98.00;;;;;;5090878;28;20964;-68
2021/05/07 03:08:35;;;;;;;1.20;1.00;;;8.00;98.00;;;;;;5092717;28;20560;-68
2021/05/07 03:11:02;;;;;;;1.20;0.90;;;8.10;98.00;;;;;;5089632;28;20889;-69
2021/05/07 03:13:28;;;;;;;1.20;0.90;;;8.00;98.00;;;;;;5093153;28;20463;-69
2021/05/07 03:15:55;;;;;;;1.20;1.00;;;7.90;98.00;;;;;;5090403;28;20456;-68
2021/05/07 03:18:22;;;;;;;1.40;1.17;;;7.90;98.00;;;;;;5091669;28;20827;-68
2021/05/07 03:20:52;;;;;;;1.20;1.10;;;7.90;98.00;;;;;;5092102;28;20481;-68
2021/05/07 03:23:22;;;;;;;1.20;0.90;;;8.00;98.00;;;;;;5092991;28;20459;-69
2021/05/07 03:25:50;;;;;;;1.20;0.90;;;8.00;98.00;;;;;;5091359;28;20465;-68
2021/05/07 03:28:16;;;;;;;1.20;0.90;;;7.90;98.00;;;;;;5091935;28;20452;-69
2021/05/07 03:30:43;;;;;;;1.20;0.90;;;7.90;98.00;;;;;;5091697;28;20834;-68
2021/05/07 03:33:10;;;;;;;1.20;1.00;;;7.90;98.00;;;;;;5089026;28;20491;-68
2021/05/07 03:35:36;;;;;;;1.20;0.90;;;7.90;98.00;;;;;;5092723;28;20494;-69
2021/05/07 03:38:05;;;;;;;1.20;0.90;;;7.80;98.00;;;;;;5089998;28;20457;-69
2021/05/07 03:40:32;;;;;;;1.40;1.03;;;7.80;98.00;;;;;;5091292;28;20480;-69
2021/05/07 03:42:59;;;;;;;1.20;0.90;;;7.80;98.00;;;;;;5088809;28;20510;-68
2021/05/07 03:45:25;;;;;;;1.20;0.90;;;7.90;98.00;;;;;;5092459;28;20496;-69
2021/05/07 03:47:53;;;;;;;1.20;0.90;;;7.90;98.00;;;;;;5090115;28;20466;-68
2021/05/07 03:50:20;;;;;;;1.30;1.10;;;8.00;98.00;;;;;;5092483;28;21030;-68
2021/05/07 03:52:46;;;;;;;1.20;0.90;;;7.90;98.00;;;;;;5089900;28;20804;-69
2021/05/07 03:55:15;;;;;;;1.20;0.90;;;8.00;98.00;;;;;;5092335;28;20462;-68
2021/05/07 03:57:43;;;;;;;1.20;1.00;;;8.00;98.00;;;;;;5089888;28;20585;-69
2021/05/07 04:00:12;;;;;;;1.20;0.90;;;8.00;98.00;;;;;;5090976;28;20477;-68
2021/05/07 04:02:43;;;;;;;1.20;0.93;;;8.10;98.00;;;;;;5089785;28;20479;-69
2021/05/07 04:05:12;;;;;;;1.20;1.00;;;8.10;98.00;;;;;;5092128;28;20556;-67
2021/05/07 04:07:40;;;;;;;1.47;1.43;;;8.10;98.00;;;;;;5089774;28;20827;-68
2021/05/07 04:10:13;;;;;;;1.20;0.90;;;8.10;98.00;;;;;;5074145;28;20513;-68
2021/05/07 04:15:25;;;;;;;1.70;1.33;;;7.90;98.00;;;;;;5090950;28;20507;-69
2021/05/07 04:17:52;;;;;;;1.20;0.90;;;7.90;98.00;;;;;;5088200;28;20470;-69
2021/05/07 04:20:18;;;;;;;1.20;0.90;;;7.90;98.00;;;;;;5090893;28;20537;-69
2021/05/07 04:22:45;;;;;;;1.20;0.90;;;7.90;98.00;;;;;;5089459;28;20985;-69
2021/05/07 04:25:12;;;;;;;1.20;0.90;;;7.90;98.00;;;;;;5073784;28;20466;-67
2021/05/07 04:27:40;;;;;;;1.20;0.90;;;7.90;98.00;;;;;;5089604;28;20511;-68
2021/05/07 04:30:08;;;;;;;1.20;0.90;;;7.90;98.00;;;;;;5091662;28;20456;-69
2021/05/07 04:32:37;;;;;;;1.20;0.90;;;8.00;98.00;;;;;;5089480;28;20958;-69
2021/05/07 04:35:04;;;;;;;1.20;0.90;;;8.10;98.00;;;;;;5091675;28;20465;-68
2021/05/07 04:37:31;;;;;;;1.40;1.10;;;8.20;98.00;;;;;;5089003;28;20476;-69
2021/05/07 04:39:58;;;;;;;1.17;1.00;;;8.30;98.00;;;;;;5090258;28;20771;-68
2021/05/07 04:42:25;;;;;;;1.20;1.00;;;8.30;98.00;;;;;;5088906;28;20492;-70
2021/05/07 04:44:52;;;;;;;1.20;0.90;;;8.30;98.00;;;;;;5090325;28;20524;-70
2021/05/07 04:47:19;;;;;;;1.20;0.90;;;8.20;98.00;;;;;;5088986;28;20457;-68
2021/05/07 04:49:45;;;;;;;1.20;1.00;;;8.00;98.00;;;;;;5091572;28;20842;-68
2021/05/07 04:52:11;;;;;;;1.13;0.90;;;8.00;98.00;;;;;;5088665;28;20515;-69
2021/05/07 04:54:38;;;;;;;1.10;0.90;;;8.20;98.00;;;;;;5091522;28;20464;-69
2021/05/07 04:57:05;;;;;;;1.20;0.90;;;8.20;98.00;;;;;;5089726;28;20469;-68
2021/05/07 04:59:33;;;;;;;1.20;0.90;;;8.10;98.00;;;;;;5090482;28;20821;-70
2021/05/07 05:02:00;;;;;;;1.20;0.90;;;8.00;98.00;;;;;;5089723;28;20484;-68
2021/05/07 05:04:27;;;;;;;1.20;0.90;;;8.00;98.00;;;;;;5091541;28;20491;-67
2021/05/07 05:06:53;;;;;;;1.40;1.10;;;7.90;98.00;;;;;;5089097;28;20806;-68
2021/05/07 05:09:20;;;;;;;1.67;1.00;;;7.80;98.00;;;;;;5089902;28;20489;-68
2021/05/07 05:11:47;;;;;;;1.20;0.90;;;7.70;98.00;;;;;;5088620;28;20456;-70
2021/05/07 05:14:14;;;;;;;1.20;0.90;;;7.60;98.00;;;;;;5091037;28;20521;-69
2021/05/07 05:16:41;;;;;;;1.20;0.90;;;7.50;98.00;;;;;;5088424;28;20673;-68
2021/05/07 05:19:08;;;;;;;3.20;1.47;;;7.30;98.00;;;;;;5090969;28;20878;-68
2021/05/07 05:21:35;;;;;;;1.20;0.90;;;7.40;98.00;;;;;;5088204;28;20480;-67
2021/05/07 05:24:03;;;;;;;1.20;0.90;;;7.40;98.00;;;;;;5090933;28;20513;-68
2021/05/07 05:26:29;;;;;;;1.20;0.90;;;7.50;98.00;;;;;;5088414;28;20798;-68
2021/05/07 05:28:55;;;;;;;1.20;0.90;;;7.50;98.00;;;;;;5090765;28;20963;-69
2021/05/07 05:31:23;;;;;;;1.50;1.10;;;7.60;98.00;;;;;;5088210;28;20863;-68
2021/05/07 05:33:49;;;;;;;1.20;0.90;;;7.50;98.00;;;;;;5091144;28;20462;-68
2021/05/07 05:36:17;;;;;;;1.20;0.90;;;7.60;98.00;;;;;;5088244;28;20496;-68
2021/05/07 05:38:43;;;;;;;1.20;0.90;;;7.60;98.00;;;;;;5090729;28;20451;-68
2021/05/07 05:41:10;;;;;;;1.20;1.00;;;7.70;98.00;;;;;;5088202;28;20908;-68
2021/05/07 05:43:36;;;;;;;1.30;1.20;;;7.80;98.00;;;;;;5090803;28;20805;-68
2021/05/07 05:46:03;;;;;;;1.20;1.00;;;7.90;98.00;;;;;;5090491;28;20449;-69
2021/05/07 05:48:30;;;;;;;1.20;0.90;;;7.90;98.00;;;;;;5088997;28;20508;-68
2021/05/07 05:50:56;;;;;;;1.17;0.90;;;8.00;98.00;;;;;;5089651;28;20463;-68
2021/05/07 05:53:24;;;;;;;1.20;0.90;;;8.00;98.00;;;;;;5088048;28;20565;-68
2021/05/07 05:55:50;;;;;;;1.20;0.90;;;8.10;98.00;;;;;;5090860;28;20452;-67
2021/05/07 05:58:17;;;;;;;1.20;0.90;;;8.00;98.00;;;;;;5088070;28;20468;-68
2021/05/07 06:00:43;;;;;;;1.20;1.00;;;7.80;98.00;;;;;;5090677;28;20487;-68
2021/05/07 06:03:09;;;;;;;1.20;0.90;;;7.90;98.00;;;;;;5088322;28;20453;-69
2021/05/07 06:05:37;;;;;;;1.20;0.90;;;7.80;98.00;;;;;;5090871;28;20863;-67
2021/05/07 06:08:05;;;;;;;1.20;0.90;;;7.80;98.00;;;;;;5088224;28;20465;-66
2021/05/07 06:10:32;;;;;;;1.10;0.90;;;7.80;98.00;;;;;;5090849;28;20462;-67
2021/05/07 06:12:58;;;;;;;1.20;0.90;;;7.80;98.00;;;;;;5088042;28;20454;-68
2021/05/07 06:15:25;;;;;;;1.20;0.90;;;7.80;98.00;;;;;;5090667;28;20939;-68
2021/05/07 06:17:52;;;;;;;1.20;0.90;;;7.70;98.00;;;;;;5087702;28;20468;-68
2021/05/07 06:20:19;;;;;;;1.20;0.97;;;7.60;98.00;;;;;;5090568;28;20488;-67
2021/05/07 06:22:47;;;;;;;1.20;0.90;;;7.60;98.00;;;;;;5088355;28;20464;-67
2021/05/07 06:25:16;;;;;;;1.23;1.00;;;7.60;98.00;;;;;;5090351;28;20454;-67
2021/05/07 06:27:44;;;;;;;1.20;0.90;;;7.60;98.00;;;;;;5088008;28;20453;-68
2021/05/07 06:30:13;;;;;;;1.20;0.90;;;7.80;98.00;;;;;;5090153;28;20955;-68
2021/05/07 06:32:39;;;;;;;1.20;0.90;;;7.90;98.00;;;;;;5087675;28;20852;-67
2021/05/07 06:35:07;;;;;;;1.57;1.40;;;7.80;98.00;;;;;;5090351;28;20868;-67
2021/05/07 06:37:33;;;;;;;1.20;0.90;;;7.90;98.00;;;;;;5088066;28;20453;-67
2021/05/07 06:40:00;;;;;;;1.20;0.90;;;7.90;98.00;;;;;;5090138;28;20872;-67
2021/05/07 06:42:28;;;;;;;1.30;1.00;;;7.90;98.00;;;;;;5087503;28;20507;-67
2021/05/07 06:44:55;;;;;;;1.20;0.90;;;7.80;98.00;;;;;;5093908;28;20463;-67
2021/05/07 06:47:21;;;;;;;1.20;0.90;;;7.70;98.00;;;;;;5091661;28;20489;-67
2021/05/07 06:49:48;;;;;;;1.20;0.90;;;7.70;98.00;;;;;;5093596;28;20497;-67
2021/05/07 06:52:14;;;;;;;1.20;1.00;;;7.60;98.00;;;;;;5091529;28;20449;-68
2021/05/07 06:54:41;;;;;;;1.20;0.90;;;7.50;98.00;;;;;;5092413;28;20460;-65
2021/05/07 06:57:07;;;;;;;1.20;0.90;;;7.40;98.00;;;;;;5091454;28;20576;-68
2021/05/07 06:59:34;;;;;;;1.20;0.90;;;7.50;98.00;;;;;;5093514;28;20956;-68
2021/05/07 07:02:01;;;;;;;1.13;0.90;;;7.60;98.00;;;;;;5091075;28;20510;-68
2021/05/07 07:04:27;;;;;;;1.83;1.73;;;7.70;98.00;;;;;;5093391;28;20582;-68
2021/05/07 07:06:54;;;;;;;1.20;0.90;;;7.80;98.00;;;;;;5091192;28;20828;-67
2021/05/07 07:09:21;;;;;;;1.20;0.90;;;7.90;98.00;;;;;;5093371;28;21032;-68
2021/05/07 07:11:47;;;;;;;1.20;0.90;;;7.80;98.00;;;;;;5091109;28;20821;-69
2021/05/07 07:14:14;;;;;;;1.20;0.90;;;7.80;98.00;;;;;;5093380;28;20452;-66
2021/05/07 07:16:41;;;;;;;1.20;0.90;;;7.70;98.00;;;;;;5089073;28;20545;-66
2021/05/07 07:19:08;;;;;;;1.20;0.93;;;7.80;98.00;;;;;;5092445;28;20464;-66
2021/05/07 07:21:36;;;;;;;1.20;0.90;;;7.90;98.00;;;;;;5090030;28;20888;-67
2021/05/07 07:24:03;;;;;;;1.20;1.00;;;7.90;98.00;;;;;;5092014;28;20969;-66
2021/05/07 07:26:35;;;;;;;1.20;0.90;;;7.80;98.00;;;;;;5089962;28;20458;-66
2021/05/07 07:29:02;;;;;;;1.20;1.00;;;7.70;98.00;;;;;;5092447;28;20452;-67
2021/05/07 07:31:29;;;;;;;1.20;1.00;;;7.80;98.00;;;;;;5089889;28;20464;-66
2021/05/07 07:33:56;;;;;;;4.30;1.33;;;8.00;98.00;;;;;;5092748;28;20864;-68
2021/05/07 07:36:23;;;;;;;1.20;0.90;;;7.90;98.00;;;;;;5089909;28;20460;-67
2021/05/07 07:38:50;;;;;;;1.20;1.00;;;8.00;98.00;;;;;;5092624;28;20484;-67
2021/05/07 07:41:17;;;;;;;1.20;1.00;;;8.00;98.00;;;;;;5090899;28;20517;-68
2021/05/07 07:43:43;;;;;;;1.20;0.90;;;7.90;98.00;;;;;;5092382;28;20493;-68
2021/05/07 07:46:10;;;;;;;1.20;1.00;;;8.00;98.00;;;;;;5092273;28;20453;-68
2021/05/07 07:48:37;;;;;;;1.20;1.00;;;8.00;98.00;;;;;;5089739;28;20453;-69
2021/05/07 07:51:04;;;;;;;1.70;1.07;;;7.90;98.00;;;;;;5092272;28;20452;-68
2021/05/07 07:53:31;;;;;;;1.20;0.90;;;7.80;98.00;;;;;;5089317;28;20461;-68
2021/05/07 07:55:58;;;;;;;1.40;1.20;;;7.80;98.00;;;;;;5091839;28;20534;-68
2021/05/07 07:58:25;;;;;;;1.20;1.00;;;7.80;98.00;;;;;;5089477;28;20511;-68
2021/05/07 08:00:54;;;;;;;1.17;0.90;;;7.90;98.00;;;;;;5091801;28;20534;-69
2021/05/07 08:03:21;;;;;;;1.33;0.97;;;7.90;98.00;;;;;;5089362;28;20514;-66
2021/05/07 08:05:48;;;;;;;1.20;0.90;;;8.10;98.00;;;;;;5089998;28;20452;-66
2021/05/07 08:08:14;;;;;;;1.20;0.97;;;8.20;98.00;;;;;;5088933;28;20456;-67
2021/05/07 08:10:42;;;;;;;1.20;0.90;;;8.20;98.00;;;;;;5091753;28;20456;-67
2021/05/07 08:13:09;;;;;;;1.63;1.00;;;8.30;98.00;;;;;;5089285;28;20519;-68
2021/05/07 08:15:36;;;;;;;1.30;1.20;;;8.20;98.00;;;;;;5091221;28;20947;-68
2021/05/07 08:18:02;;;;;;;2.43;1.10;;;8.10;98.00;;;;;;5088491;28;20460;-68
2021/05/07 08:20:29;;;;;;;1.20;0.90;;;8.00;98.00;;;;;;5091040;28;20463;-67
2021/05/07 08:22:57;;;;;;;1.20;1.10;;;8.00;98.00;;;;;;5087385;28;20448;-68
2021/05/07 08:25:23;;;;;;;1.20;1.00;;;8.10;98.00;;;;;;5091207;28;20452;-67
2021/05/07 08:27:52;;;;;;;1.20;0.90;;;8.20;98.00;;;;;;5088874;28;20991;-66
2021/05/07 08:30:19;;;;;;;1.20;1.00;;;8.30;98.00;;;;;;5090864;28;20951;-67
2021/05/07 08:32:45;;;;;;;1.20;1.00;;;8.40;98.00;;;;;;5088653;28;20488;-67
2021/05/07 08:35:12;;;;;;;1.20;1.00;;;8.70;98.00;;;;;;5091181;28;20465;-67
2021/05/07 08:37:43;;;;;;;1.20;0.90;;;8.70;98.00;;;;;;5088303;28;20478;-68
2021/05/07 08:40:14;;;;;;;1.20;0.90;;;8.60;98.00;;;;;;5091208;28;20473;-67
2021/05/07 08:42:41;;;;;;;1.20;0.90;;;8.70;98.00;;;;;;5088419;28;20484;-68
2021/05/07 08:45:10;;;;;;;1.20;1.10;;;8.80;98.00;;;;;;5090830;28;20457;-67
2021/05/07 08:47:37;;;;;;;1.30;1.00;;;8.90;98.00;;;;;;5087019;28;20484;-68
2021/05/07 08:50:05;;;;;;;1.20;1.00;;;8.90;98.00;;;;;;5091137;28;20488;-68
2021/05/07 08:52:31;;;;;;;1.50;1.10;;;8.90;98.00;;;;;;5088262;28;20452;-68
2021/05/07 08:54:58;;;;;;;1.20;1.00;;;9.20;98.00;;;;;;5089679;28;20464;-68
2021/05/07 08:57:25;;;;;;;1.30;1.07;;;9.20;98.00;;;;;;5088386;28;20459;-68
2021/05/07 08:59:51;;;;;;;1.20;1.10;;;9.30;98.00;;;;;;5090688;28;20490;-68
2021/05/07 09:02:26;;;;;;;1.20;0.90;;;9.60;98.00;;;;;;5088203;28;20497;-68
2021/05/07 09:04:57;;;;;;;1.20;0.90;;;9.70;98.00;;;;;;5090196;28;20452;-68
2021/05/07 09:07:26;;;;;;;1.20;0.97;;;9.90;98.00;;;;;;5087920;28;20520;-69
2021/05/07 09:09:57;;;;;;;1.20;1.10;;;10.20;98.00;;;;;;5090677;28;20457;-68
2021/05/07 09:12:26;;;;;;;1.20;1.00;;;10.00;98.00;;;;;;5088115;28;20499;-69
2021/05/07 09:14:53;;;;;;;1.20;1.00;;;9.90;98.00;;;;;;5090633;28;20793;-68
2021/05/07 09:17:21;;;;;;;1.20;0.90;;;9.80;98.00;;;;;;5088000;28;20493;-69
2021/05/07 09:19:48;;;;;;;1.83;1.20;;;9.70;98.00;;;;;;5090659;28;20480;-68
2021/05/07 09:22:25;;;;;;;1.20;0.90;;;9.90;98.00;;;;;;5088011;28;20553;-68
2021/05/07 09:25:09;;;;;;;1.20;0.90;;;10.20;98.00;;;;;;5090581;28;20450;-68
2021/05/07 09:27:36;;;;;;;1.70;1.33;;;10.50;98.00;;;;;;5087897;28;20455;-67
2021/05/07 09:30:05;;;;;;;1.20;1.00;;;10.80;98.00;;;;;;5090489;28;20489;-68
2021/05/07 09:32:33;;;;;;;1.20;1.00;;;10.90;98.00;;;;;;5087943;28;20455;-69
2021/05/07 09:35:12;;;;;;;1.23;1.03;;;11.00;98.00;;;;;;5090348;28;20456;-69
2021/05/07 09:37:39;;;;;;;1.20;0.90;;;11.20;98.00;;;;;;5087848;28;20963;-68
2021/05/07 09:40:15;;;;;;;1.27;1.10;;;11.00;96.60;;;;;;5090354;28;20468;-68
2021/05/07 09:42:41;;;;;;;1.20;1.00;;;10.90;98.00;;;;;;5087926;28;20491;-68
2021/05/07 09:45:19;;;;;;;1.20;1.10;;;10.90;98.00;;;;;;5090349;28;20470;-68
2021/05/07 09:47:48;;;;;;;1.20;1.00;;;10.70;97.40;;;;;;5087915;28;20459;-68
2021/05/07 09:50:16;;;;;;;1.20;1.00;;;10.80;96.40;;;;;;5089932;28;20529;-68
2021/05/07 09:52:44;;;;;;;1.40;1.10;;;10.70;94.40;;;;;;5087754;28;20475;-68
2021/05/07 09:55:12;;;;;;;1.20;0.93;;;10.50;95.80;;;;;;5090296;28;20627;-69
2021/05/07 09:57:40;;;;;;;1.30;1.10;;;10.50;95.00;;;;;;5087488;28;20468;-68
2021/05/07 10:00:08;;;;;;;1.30;1.10;;;10.00;94.40;;;;;;5090251;28;20537;-68
2021/05/07 10:02:34;;;;;;;1.20;1.00;;;10.00;97.90;;;;;;5087681;28;20553;-68
2021/05/07 10:05:01;;;;;;;1.20;0.90;;;10.40;98.00;;;;;;5089989;28;20542;-69
2021/05/07 10:07:29;;;;;;;1.20;1.00;;;10.90;97.70;;;;;;5087689;28;20452;-68
2021/05/07 10:10:07;;;;;;;1.50;1.10;;;11.50;98.00;;;;;;5089991;28;20832;-67
2021/05/07 10:12:36;;;;;;;4.17;1.30;;;11.80;94.80;;;;;;5087614;28;20455;-68
2021/05/07 10:15:04;;;;;;;1.90;1.30;;;11.80;91.20;;;;;;5090111;28;20820;-68
2021/05/07 10:17:32;;;;;;;1.30;1.20;;;11.70;91.60;;;;;;5088462;28;20973;-68
2021/05/07 10:19:58;;;;;;;1.63;1.10;;;11.50;92.80;;;;;;5094043;28;20459;-69
2021/05/07 10:22:38;;;;;;;1.20;1.00;;;11.40;92.90;;;;;;5091516;28;20479;-68
2021/05/07 10:25:19;;;;;;;1.20;1.03;;;11.20;91.90;;;;;;5093895;28;20452;-68
2021/05/07 10:27:47;;;;;;;1.70;1.10;;;11.10;92.40;;;;;;5091419;28;20968;-68
2021/05/07 10:30:30;;;;;;;1.67;1.13;;;11.20;92.40;;;;;;5093864;28;20917;-67
2021/05/07 10:33:02;;;;;;;1.20;0.93;;;11.50;91.00;;;;;;5089824;28;20960;-69
2021/05/07 10:35:34;;;;;;;1.20;1.00;;;11.70;92.70;;;;;;5093518;28;20444;-69
2021/05/07 10:38:13;;;;;;;1.20;0.90;;;12.00;87.00;;;;;;5091300;28;20457;-68
2021/05/07 10:40:39;;;;;;;1.20;0.90;;;12.20;86.50;;;;;;5093883;28;20463;-68
2021/05/07 10:43:07;;;;;;;1.20;0.90;;;12.20;86.60;;;;;;5091235;28;20490;-70
2021/05/07 10:45:48;;;;;;;2.07;1.10;;;12.10;85.30;;;;;;5093516;28;20457;-68
2021/05/07 10:48:17;;;;;;;1.20;0.90;;;11.50;86.00;;;;;;5091115;28;20513;-69
2021/05/07 10:50:44;;;;;;;1.20;0.97;;;11.30;85.10;;;;;;5093529;28;20507;-69
2021/05/07 10:53:23;;;;;;;1.20;0.90;;;11.70;87.10;;;;;;5091760;28;20491;-69
2021/05/07 10:55:50;;;;;;;1.20;0.90;;;11.80;83.10;;;;;;5094649;28;20483;-69
2021/05/07 10:58:19;;;;;;;1.20;0.90;;;11.50;81.70;;;;;;5091442;28;20457;-70
2021/05/07 11:00:46;;;;;;;1.47;1.10;;;11.50;84.40;;;;;;5093135;28;20456;-67
2021/05/07 11:03:20;;;;;;;1.20;1.00;;;11.50;84.80;;;;;;5091219;28;20463;-69
2021/05/07 11:05:48;;;;;;;1.20;1.00;;;11.40;83.70;;;;;;5093248;28;20929;-68
2021/05/07 11:08:16;;;;;;;1.20;1.00;;;11.40;85.00;;;;;;5091073;28;20978;-68
2021/05/07 11:10:43;;;;;;;1.20;1.00;;;11.10;83.50;;;;;;5093122;28;20862;-69
2021/05/07 11:13:11;;;;;;;1.20;0.90;;;11.00;85.00;;;;;;5091225;28;20539;-68
2021/05/07 11:15:38;;;;;;;3.90;2.13;;;11.00;84.30;;;;;;5092978;28;20459;-68
2021/05/07 11:18:08;;;;;;;1.20;0.90;;;11.00;85.00;;;;;;5090514;28;20471;-69
2021/05/07 11:20:36;;;;;;;1.20;0.90;;;11.10;85.30;;;;;;5092999;28;20459;-68
2021/05/07 11:23:04;;;;;;;2.50;1.33;;;11.50;80.60;;;;;;5090393;28;20895;-68
2021/05/07 11:25:32;;;;;;;1.20;0.90;;;12.00;82.00;;;;;;5092598;28;20504;-68
2021/05/07 11:28:11;;;;;;;1.20;1.00;;;12.20;80.70;;;;;;5089380;28;20492;-68
2021/05/07 11:30:49;;;;;;;1.30;1.10;;;12.10;79.50;;;;;;5092642;28;20452;-66
2021/05/07 11:33:17;;;;;;;1.20;1.00;;;12.40;82.80;;;;;;5090311;28;20951;-68
2021/05/07 11:35:45;;;;;;;1.30;1.10;;;12.70;79.00;;;;;;5092323;28;20976;-67
2021/05/07 11:38:13;;;;;;;1.30;1.07;;;13.00;77.00;;;;;;5090004;28;20464;-67
2021/05/07 11:40:42;;;;;;;1.20;0.90;;;13.00;77.20;;;;;;5092385;28;20454;-70
2021/05/07 11:43:13;;;;;;;1.30;1.10;;;13.70;78.40;;;;;;5090025;28;20456;-69
2021/05/07 11:45:41;;;;;;;1.20;0.90;;;13.90;74.90;;;;;;5092194;28;20462;-68
2021/05/07 11:48:10;;;;;;;1.20;1.10;;;14.30;77.50;;;;;;5090080;28;20451;-69
2021/05/07 11:50:37;;;;;;;1.20;1.10;;;14.40;77.30;;;;;;5092336;28;20459;-67
2021/05/07 11:53:05;;;;;;;1.20;1.00;;;14.50;71.40;;;;;;5088223;28;20461;-66
2021/05/07 11:55:35;;;;;;;1.20;1.00;;;14.40;72.10;;;;;;5092356;28;20455;-67
2021/05/07 11:58:05;;;;;;;1.20;1.00;;;14.50;74.60;;;;;;5089676;28;20545;-67
2021/05/07 12:00:34;;;;;;;1.40;1.20;;;14.20;74.90;;;;;;5092049;28;20460;-69
2021/05/07 12:03:03;;;;;;;1.20;0.90;;;14.00;74.60;;;;;;5089867;28;20522;-68
2021/05/07 12:05:34;;;;;;;1.30;1.10;;;14.00;74.70;;;;;;5092338;28;20464;-68
2021/05/07 12:08:03;;;;;;;1.20;1.00;;;14.00;74.50;;;;;;5089379;28;20469;-69
2021/05/07 12:10:31;;;;;;;1.20;1.00;;;14.10;73.80;;;;;;5092241;28;20472;-68
2021/05/07 12:12:59;;;;;;;1.27;1.00;;;14.30;73.90;;;;;;5089941;28;20995;-67
2021/05/07 12:15:30;;;;;;;1.20;0.90;;;13.70;70.60;;;;;;5091811;28;20459;-67
2021/05/07 12:17:57;;;;;;;1.20;1.10;;;13.30;74.00;;;;;;5089072;28;21044;-68
2021/05/07 12:20:27;;;;;;;1.20;0.90;;;13.20;79.00;;;;;;5091530;28;20530;-68
2021/05/07 12:22:55;;;;;;;1.20;0.90;;;13.30;74.60;;;;;;5087158;28;20483;-67
2021/05/07 12:25:25;;;;;;;1.20;1.00;;;13.30;74.80;;;;;;5091564;28;20546;-68
2021/05/07 12:27:54;;;;;;;1.20;0.93;;;13.20;75.60;;;;;;5089426;28;20681;-68
2021/05/07 12:30:27;;;;;;;1.40;1.10;;;12.90;74.40;;;;;;5091675;28;20506;-68
2021/05/07 12:33:03;;;;;;;1.30;1.00;;;12.60;74.20;;;;;;5089377;28;20456;-68
2021/05/07 12:35:37;;;;;;;1.20;0.90;;;12.40;74.20;;;;;;5091360;28;20464;-67
2021/05/07 12:38:19;;;;;;;1.20;1.00;;;12.10;76.30;;;;;;5089181;28;20963;-66
2021/05/07 12:40:46;;;;;;;1.20;1.10;;;11.90;77.80;;;;;;5090703;28;20456;-69
2021/05/07 12:43:13;;;;;;;1.20;0.90;;;12.00;77.70;;;;;;5089028;28;20537;-69
2021/05/07 12:45:40;;;;;;;1.20;0.90;;;11.90;78.50;;;;;;5091053;28;20470;-68
2021/05/07 12:48:07;;;;;;;1.20;1.00;;;11.90;78.90;;;;;;5088920;28;20821;-69
2021/05/07 12:50:34;;;;;;;1.40;1.13;;;11.80;77.90;;;;;;5091500;28;20556;-69
2021/05/07 12:53:00;;;;;;;1.20;0.90;;;11.70;81.80;;;;;;5088622;28;20494;-67
2021/05/07 12:55:27;;;;;;;1.20;1.00;;;11.60;79.50;;;;;;5091196;28;20471;-69
2021/05/07 12:57:53;;;;;;;1.53;1.37;;;11.50;82.50;;;;;;5088760;28;20467;-67
2021/05/07 13:00:21;;;;;;;1.20;1.00;;;11.50;79.90;;;;;;5091398;28;20456;-69
2021/05/07 13:02:49;;;;;;;1.20;0.90;;;11.40;82.20;;;;;;5088493;28;20481;-68